sensor_id;sensor_type;location;lat;lon;timestamp;P1;durP1;ratioP1;P2;durP2;ratioP2
8654;SDS011;13500;52.514;13.462;2022-08-19T00:00:02;7.67;;;6.97;;
8654;SDS011;13500;52.514;13.462;2022-08-19T00:02:31;8.43;;;7.57;;
8654;SDS011;13500;52.514;13.462;2022-08-19T00:05:01;7.63;;;6.93;;
8654;SDS011;13500;52.514;13.462;2022-08-19T00:07:29;8.13;;;6.87;;
8654;SDS011;13500;52.514;13.462;2022-08-19T00:09:57;7.80;;;7.10;;
8654;SDS011;13500;52.514;13.462;2022-08-19T00:12:26;9.67;;;7.50;;
8654;SDS011;13500;52.514;13.462;2022-08-19T00:14:54;8.57;;;7.77;;
8654;SDS011;13500;52.514;13.462;2022-08-19T00:17:22;8.50;;;7.60;;
8654;SDS011;13500;52.514;13.462;2022-08-19T00:19:50;7.77;;;7.07;;
8654;SDS011;13500;52.514;13.462;2022-08-19T00:22:20;7.87;;;7.17;;
8654;SDS011;13500;52.514;13.462;2022-08-19T00:24:48;8.47;;;7.70;;
8654;SDS011;13500;52.514;13.462;2022-08-19T00:27:16;8.03;;;7.33;;
8654;SDS011;13500;52.514;13.462;2022-08-19T00:29:52;8.10;;;7.30;;
8654;SDS011;13500;52.514;13.462;2022-08-19T00:32:20;7.57;;;6.87;;
8654;SDS011;13500;52.514;13.462;2022-08-19T00:34:49;8.37;;;7.57;;
8654;SDS011;13500;52.514;13.462;2022-08-19T00:37:21;8.40;;;7.33;;
8654;SDS011;13500;52.514;13.462;2022-08-19T00:39:52;8.03;;;7.27;;
8654;SDS011;13500;52.514;13.462;2022-08-19T00:42:22;8.77;;;7.67;;
8654;SDS011;13500;52.514;13.462;2022-08-19T00:44:50;8.40;;;7.57;;
8654;SDS011;13500;52.514;13.462;2022-08-19T00:47:18;8.70;;;7.90;;
8654;SDS011;13500;52.514;13.462;2022-08-19T00:49:47;10.57;;;8.90;;
8654;SDS011;13500;52.514;13.462;2022-08-19T00:52:19;10.03;;;9.00;;
8654;SDS011;13500;52.514;13.462;2022-08-19T00:54:51;11.03;;;9.27;;
8654;SDS011;13500;52.514;13.462;2022-08-19T00:57:22;10.23;;;9.20;;
8654;SDS011;13500;52.514;13.462;2022-08-19T00:59:54;10.50;;;9.43;;
8654;SDS011;13500;52.514;13.462;2022-08-19T01:02:29;9.57;;;8.67;;
8654;SDS011;13500;52.514;13.462;2022-08-19T01:04:59;10.30;;;9.33;;
8654;SDS011;13500;52.514;13.462;2022-08-19T01:07:29;10.37;;;9.30;;
8654;SDS011;13500;52.514;13.462;2022-08-19T01:10:03;11.23;;;9.57;;
8654;SDS011;13500;52.514;13.462;2022-08-19T01:12:34;10.33;;;9.33;;
8654;SDS011;13500;52.514;13.462;2022-08-19T01:15:04;11.40;;;10.20;;
8654;SDS011;13500;52.514;13.462;2022-08-19T01:17:33;10.47;;;9.47;;
8654;SDS011;13500;52.514;13.462;2022-08-19T01:20:03;10.27;;;9.27;;
8654;SDS011;13500;52.514;13.462;2022-08-19T01:22:35;11.10;;;10.00;;
8654;SDS011;13500;52.514;13.462;2022-08-19T01:25:09;12.10;;;10.77;;
8654;SDS011;13500;52.514;13.462;2022-08-19T01:27:41;11.97;;;10.00;;
8654;SDS011;13500;52.514;13.462;2022-08-19T01:30:12;13.07;;;10.17;;
8654;SDS011;13500;52.514;13.462;2022-08-19T01:32:43;12.07;;;10.90;;
8654;SDS011;13500;52.514;13.462;2022-08-19T01:35:12;11.43;;;10.33;;
8654;SDS011;13500;52.514;13.462;2022-08-19T01:37:46;14.50;;;10.70;;
8654;SDS011;13500;52.514;13.462;2022-08-19T01:40:15;11.97;;;10.70;;
8654;SDS011;13500;52.514;13.462;2022-08-19T01:42:45;12.90;;;11.20;;
8654;SDS011;13500;52.514;13.462;2022-08-19T01:45:14;12.43;;;11.13;;
8654;SDS011;13500;52.514;13.462;2022-08-19T01:47:43;12.43;;;11.23;;
8654;SDS011;13500;52.514;13.462;2022-08-19T01:50:28;11.97;;;10.70;;
8654;SDS011;13500;52.514;13.462;2022-08-19T01:52:58;12.30;;;10.83;;
8654;SDS011;13500;52.514;13.462;2022-08-19T01:55:31;11.90;;;10.70;;
8654;SDS011;13500;52.514;13.462;2022-08-19T01:58:01;13.00;;;10.63;;
8654;SDS011;13500;52.514;13.462;2022-08-19T02:00:32;12.80;;;10.83;;
8654;SDS011;13500;52.514;13.462;2022-08-19T02:03:00;10.57;;;9.33;;
8654;SDS011;13500;52.514;13.462;2022-08-19T02:05:28;12.77;;;10.43;;
8654;SDS011;13500;52.514;13.462;2022-08-19T02:07:58;11.43;;;10.33;;
8654;SDS011;13500;52.514;13.462;2022-08-19T02:10:26;10.73;;;9.60;;
8654;SDS011;13500;52.514;13.462;2022-08-19T02:12:54;12.73;;;10.47;;
8654;SDS011;13500;52.514;13.462;2022-08-19T02:15:23;11.73;;;10.53;;
8654;SDS011;13500;52.514;13.462;2022-08-19T02:17:52;10.77;;;9.73;;
8654;SDS011;13500;52.514;13.462;2022-08-19T02:20:20;11.43;;;10.10;;
8654;SDS011;13500;52.514;13.462;2022-08-19T02:22:48;12.37;;;10.53;;
8654;SDS011;13500;52.514;13.462;2022-08-19T02:25:18;14.57;;;11.77;;
8654;SDS011;13500;52.514;13.462;2022-08-19T02:27:47;12.43;;;11.13;;
8654;SDS011;13500;52.514;13.462;2022-08-19T02:30:16;11.37;;;10.03;;
8654;SDS011;13500;52.514;13.462;2022-08-19T02:32:45;11.53;;;10.43;;
8654;SDS011;13500;52.514;13.462;2022-08-19T02:35:13;11.00;;;9.90;;
8654;SDS011;13500;52.514;13.462;2022-08-19T02:37:42;11.10;;;9.50;;
8654;SDS011;13500;52.514;13.462;2022-08-19T02:40:31;10.27;;;9.27;;
8654;SDS011;13500;52.514;13.462;2022-08-19T02:43:01;12.40;;;11.20;;
8654;SDS011;13500;52.514;13.462;2022-08-19T02:45:31;12.00;;;10.30;;
8654;SDS011;13500;52.514;13.462;2022-08-19T02:48:00;12.67;;;11.37;;
8654;SDS011;13500;52.514;13.462;2022-08-19T02:50:47;13.37;;;10.73;;
8654;SDS011;13500;52.514;13.462;2022-08-19T02:53:19;14.30;;;11.67;;
8654;SDS011;13500;52.514;13.462;2022-08-19T02:55:50;13.57;;;11.03;;
8654;SDS011;13500;52.514;13.462;2022-08-19T02:58:19;14.70;;;11.87;;
8654;SDS011;13500;52.514;13.462;2022-08-19T03:00:51;12.70;;;11.40;;
8654;SDS011;13500;52.514;13.462;2022-08-19T03:03:20;13.30;;;11.90;;
8654;SDS011;13500;52.514;13.462;2022-08-19T03:05:48;13.73;;;12.33;;
8654;SDS011;13500;52.514;13.462;2022-08-19T03:08:22;12.57;;;11.27;;
8654;SDS011;13500;52.514;13.462;2022-08-19T03:10:53;14.00;;;11.90;;
8654;SDS011;13500;52.514;13.462;2022-08-19T03:13:21;12.90;;;11.50;;
8654;SDS011;13500;52.514;13.462;2022-08-19T03:15:50;11.77;;;10.27;;
8654;SDS011;13500;52.514;13.462;2022-08-19T03:18:18;12.83;;;11.43;;
8654;SDS011;13500;52.514;13.462;2022-08-19T03:20:49;12.30;;;11.00;;
8654;SDS011;13500;52.514;13.462;2022-08-19T03:23:19;14.20;;;10.87;;
8654;SDS011;13500;52.514;13.462;2022-08-19T03:25:48;11.37;;;10.17;;
8654;SDS011;13500;52.514;13.462;2022-08-19T03:28:38;12.77;;;11.47;;
8654;SDS011;13500;52.514;13.462;2022-08-19T03:31:13;11.73;;;10.47;;
8654;SDS011;13500;52.514;13.462;2022-08-19T03:34:02;11.13;;;10.13;;
8654;SDS011;13500;52.514;13.462;2022-08-19T03:36:33;11.83;;;10.63;;
8654;SDS011;13500;52.514;13.462;2022-08-19T03:39:01;11.70;;;10.50;;
8654;SDS011;13500;52.514;13.462;2022-08-19T03:41:30;11.27;;;10.10;;
8654;SDS011;13500;52.514;13.462;2022-08-19T03:44:13;11.57;;;10.47;;
8654;SDS011;13500;52.514;13.462;2022-08-19T03:46:45;11.77;;;10.00;;
8654;SDS011;13500;52.514;13.462;2022-08-19T03:49:14;11.20;;;10.10;;
8654;SDS011;13500;52.514;13.462;2022-08-19T03:51:44;10.73;;;9.70;;
8654;SDS011;13500;52.514;13.462;2022-08-19T03:54:14;11.87;;;10.43;;
8654;SDS011;13500;52.514;13.462;2022-08-19T03:56:46;11.53;;;10.30;;
8654;SDS011;13500;52.514;13.462;2022-08-19T03:59:19;11.23;;;9.90;;
8654;SDS011;13500;52.514;13.462;2022-08-19T04:01:53;11.77;;;10.67;;
8654;SDS011;13500;52.514;13.462;2022-08-19T04:04:21;11.40;;;10.30;;
8654;SDS011;13500;52.514;13.462;2022-08-19T04:06:52;12.33;;;10.40;;
8654;SDS011;13500;52.514;13.462;2022-08-19T04:09:20;11.20;;;10.13;;
8654;SDS011;13500;52.514;13.462;2022-08-19T04:11:50;10.57;;;9.47;;
8654;SDS011;13500;52.514;13.462;2022-08-19T04:14:22;10.17;;;9.17;;
8654;SDS011;13500;52.514;13.462;2022-08-19T04:16:52;11.13;;;10.00;;
8654;SDS011;13500;52.514;13.462;2022-08-19T04:19:20;10.67;;;9.60;;
8654;SDS011;13500;52.514;13.462;2022-08-19T04:21:50;11.47;;;10.37;;
8654;SDS011;13500;52.514;13.462;2022-08-19T04:24:19;11.57;;;10.50;;
8654;SDS011;13500;52.514;13.462;2022-08-19T04:26:48;11.43;;;10.33;;
8654;SDS011;13500;52.514;13.462;2022-08-19T04:29:18;12.50;;;11.20;;
8654;SDS011;13500;52.514;13.462;2022-08-19T04:31:49;12.10;;;10.80;;
8654;SDS011;13500;52.514;13.462;2022-08-19T04:34:20;11.57;;;10.37;;
8654;SDS011;13500;52.514;13.462;2022-08-19T04:36:50;10.93;;;9.90;;
8654;SDS011;13500;52.514;13.462;2022-08-19T04:39:20;12.10;;;10.70;;
8654;SDS011;13500;52.514;13.462;2022-08-19T04:42:10;11.23;;;10.13;;
8654;SDS011;13500;52.514;13.462;2022-08-19T04:44:57;11.13;;;9.93;;
8654;SDS011;13500;52.514;13.462;2022-08-19T04:47:28;11.67;;;10.47;;
8654;SDS011;13500;52.514;13.462;2022-08-19T04:50:17;10.83;;;9.73;;
8654;SDS011;13500;52.514;13.462;2022-08-19T04:52:45;11.50;;;10.47;;
8654;SDS011;13500;52.514;13.462;2022-08-19T04:55:13;11.27;;;10.07;;
8654;SDS011;13500;52.514;13.462;2022-08-19T04:57:41;11.07;;;10.13;;
8654;SDS011;13500;52.514;13.462;2022-08-19T05:00:10;10.97;;;9.87;;
8654;SDS011;13500;52.514;13.462;2022-08-19T05:02:40;10.93;;;9.93;;
8654;SDS011;13500;52.514;13.462;2022-08-19T05:05:08;10.27;;;9.27;;
8654;SDS011;13500;52.514;13.462;2022-08-19T05:07:36;10.50;;;9.40;;
8654;SDS011;13500;52.514;13.462;2022-08-19T05:10:06;11.47;;;10.27;;
8654;SDS011;13500;52.514;13.462;2022-08-19T05:12:35;10.93;;;9.60;;
8654;SDS011;13500;52.514;13.462;2022-08-19T05:15:04;10.40;;;9.40;;
8654;SDS011;13500;52.514;13.462;2022-08-19T05:17:34;10.00;;;9.10;;
8654;SDS011;13500;52.514;13.462;2022-08-19T05:20:07;10.80;;;9.77;;
8654;SDS011;13500;52.514;13.462;2022-08-19T05:22:53;9.00;;;8.20;;
8654;SDS011;13500;52.514;13.462;2022-08-19T05:25:22;10.17;;;8.90;;
8654;SDS011;13500;52.514;13.462;2022-08-19T05:27:51;9.47;;;8.47;;
8654;SDS011;13500;52.514;13.462;2022-08-19T05:30:19;9.70;;;8.80;;
8654;SDS011;13500;52.514;13.462;2022-08-19T05:33:08;9.33;;;8.40;;
8654;SDS011;13500;52.514;13.462;2022-08-19T05:35:39;8.80;;;7.90;;
8654;SDS011;13500;52.514;13.462;2022-08-19T05:38:08;8.97;;;8.17;;
8654;SDS011;13500;52.514;13.462;2022-08-19T05:40:37;16.37;;;14.70;;
8654;SDS011;13500;52.514;13.462;2022-08-19T05:43:06;15.43;;;13.83;;
8654;SDS011;13500;52.514;13.462;2022-08-19T05:45:38;10.27;;;9.20;;
8654;SDS011;13500;52.514;13.462;2022-08-19T05:48:08;8.53;;;7.73;;
8654;SDS011;13500;52.514;13.462;2022-08-19T05:50:37;8.10;;;7.40;;
8654;SDS011;13500;52.514;13.462;2022-08-19T05:53:08;10.60;;;7.30;;
8654;SDS011;13500;52.514;13.462;2022-08-19T05:55:36;7.83;;;7.23;;
8654;SDS011;13500;52.514;13.462;2022-08-19T05:58:05;8.47;;;7.67;;
8654;SDS011;13500;52.514;13.462;2022-08-19T06:00:34;7.83;;;7.03;;
8654;SDS011;13500;52.514;13.462;2022-08-19T06:03:02;7.90;;;7.10;;
8654;SDS011;13500;52.514;13.462;2022-08-19T06:05:40;7.53;;;6.83;;
8654;SDS011;13500;52.514;13.462;2022-08-19T06:08:17;8.17;;;7.43;;
8654;SDS011;13500;52.514;13.462;2022-08-19T06:11:11;7.17;;;6.47;;
8654;SDS011;13500;52.514;13.462;2022-08-19T06:13:41;8.57;;;7.63;;
8654;SDS011;13500;52.514;13.462;2022-08-19T06:16:11;8.23;;;7.53;;
8654;SDS011;13500;52.514;13.462;2022-08-19T06:18:39;8.57;;;7.60;;
8654;SDS011;13500;52.514;13.462;2022-08-19T06:21:08;9.50;;;8.57;;
8654;SDS011;13500;52.514;13.462;2022-08-19T06:23:36;8.10;;;7.40;;
8654;SDS011;13500;52.514;13.462;2022-08-19T06:26:05;8.80;;;8.10;;
8654;SDS011;13500;52.514;13.462;2022-08-19T06:28:34;8.77;;;7.90;;
8654;SDS011;13500;52.514;13.462;2022-08-19T06:31:05;8.50;;;7.73;;
8654;SDS011;13500;52.514;13.462;2022-08-19T06:33:34;8.30;;;7.50;;
8654;SDS011;13500;52.514;13.462;2022-08-19T06:36:02;8.20;;;7.47;;
8654;SDS011;13500;52.514;13.462;2022-08-19T06:38:32;8.47;;;7.77;;
8654;SDS011;13500;52.514;13.462;2022-08-19T06:41:01;8.80;;;8.00;;
8654;SDS011;13500;52.514;13.462;2022-08-19T06:43:33;9.27;;;8.37;;
8654;SDS011;13500;52.514;13.462;2022-08-19T06:46:11;8.90;;;7.50;;
8654;SDS011;13500;52.514;13.462;2022-08-19T06:48:40;8.67;;;7.87;;
8654;SDS011;13500;52.514;13.462;2022-08-19T06:51:11;9.30;;;8.50;;
8654;SDS011;13500;52.514;13.462;2022-08-19T06:53:46;9.07;;;8.07;;
8654;SDS011;13500;52.514;13.462;2022-08-19T06:56:21;9.47;;;8.27;;
8654;SDS011;13500;52.514;13.462;2022-08-19T06:58:57;10.00;;;9.00;;
8654;SDS011;13500;52.514;13.462;2022-08-19T07:01:25;9.90;;;8.40;;
8654;SDS011;13500;52.514;13.462;2022-08-19T07:03:53;9.30;;;8.40;;
8654;SDS011;13500;52.514;13.462;2022-08-19T07:06:23;9.03;;;8.23;;
8654;SDS011;13500;52.514;13.462;2022-08-19T07:09:12;9.20;;;8.27;;
8654;SDS011;13500;52.514;13.462;2022-08-19T07:11:47;9.00;;;8.13;;
8654;SDS011;13500;52.514;13.462;2022-08-19T07:14:18;9.03;;;8.13;;
8654;SDS011;13500;52.514;13.462;2022-08-19T07:16:49;8.70;;;7.90;;
8654;SDS011;13500;52.514;13.462;2022-08-19T07:19:18;10.10;;;9.10;;
8654;SDS011;13500;52.514;13.462;2022-08-19T07:21:46;9.10;;;8.30;;
8654;SDS011;13500;52.514;13.462;2022-08-19T07:24:19;9.53;;;8.63;;
8654;SDS011;13500;52.514;13.462;2022-08-19T07:26:50;10.50;;;9.50;;
8654;SDS011;13500;52.514;13.462;2022-08-19T07:29:19;9.10;;;8.30;;
8654;SDS011;13500;52.514;13.462;2022-08-19T07:31:54;9.10;;;8.20;;
8654;SDS011;13500;52.514;13.462;2022-08-19T07:34:26;10.00;;;9.03;;
8654;SDS011;13500;52.514;13.462;2022-08-19T07:36:56;9.07;;;8.20;;
8654;SDS011;13500;52.514;13.462;2022-08-19T07:39:27;9.10;;;8.30;;
8654;SDS011;13500;52.514;13.462;2022-08-19T07:41:57;10.33;;;9.23;;
8654;SDS011;13500;52.514;13.462;2022-08-19T07:44:26;9.13;;;8.33;;
8654;SDS011;13500;52.514;13.462;2022-08-19T07:46:55;9.63;;;8.57;;
8654;SDS011;13500;52.514;13.462;2022-08-19T07:49:24;9.83;;;8.90;;
8654;SDS011;13500;52.514;13.462;2022-08-19T07:51:54;10.10;;;8.33;;
8654;SDS011;13500;52.514;13.462;2022-08-19T07:54:25;10.23;;;9.23;;
8654;SDS011;13500;52.514;13.462;2022-08-19T07:56:57;10.30;;;8.13;;
8654;SDS011;13500;52.514;13.462;2022-08-19T07:59:26;10.17;;;9.27;;
8654;SDS011;13500;52.514;13.462;2022-08-19T08:01:55;10.43;;;9.47;;
8654;SDS011;13500;52.514;13.462;2022-08-19T08:04:26;10.70;;;9.67;;
8654;SDS011;13500;52.514;13.462;2022-08-19T08:07:12;10.63;;;9.63;;
8654;SDS011;13500;52.514;13.462;2022-08-19T08:09:59;10.00;;;9.10;;
8654;SDS011;13500;52.514;13.462;2022-08-19T08:12:30;10.97;;;9.87;;
8654;SDS011;13500;52.514;13.462;2022-08-19T08:15:07;10.07;;;9.07;;
8654;SDS011;13500;52.514;13.462;2022-08-19T08:17:38;12.13;;;9.17;;
8654;SDS011;13500;52.514;13.462;2022-08-19T08:20:15;10.97;;;9.90;;
8654;SDS011;13500;52.514;13.462;2022-08-19T08:22:44;10.17;;;9.17;;
8654;SDS011;13500;52.514;13.462;2022-08-19T08:25:32;12.60;;;11.33;;
8654;SDS011;13500;52.514;13.462;2022-08-19T08:28:02;11.07;;;10.03;;
8654;SDS011;13500;52.514;13.462;2022-08-19T08:30:32;12.07;;;10.20;;
8654;SDS011;13500;52.514;13.462;2022-08-19T08:33:02;11.07;;;10.03;;
8654;SDS011;13500;52.514;13.462;2022-08-19T08:35:31;11.90;;;9.47;;
8654;SDS011;13500;52.514;13.462;2022-08-19T08:38:00;20.93;;;17.30;;
8654;SDS011;13500;52.514;13.462;2022-08-19T08:40:37;12.07;;;10.80;;
8654;SDS011;13500;52.514;13.462;2022-08-19T08:43:11;12.67;;;11.53;;
8654;SDS011;13500;52.514;13.462;2022-08-19T08:45:50;10.87;;;9.47;;
8654;SDS011;13500;52.514;13.462;2022-08-19T08:48:23;10.57;;;9.53;;
8654;SDS011;13500;52.514;13.462;2022-08-19T08:51:00;9.93;;;9.03;;
8654;SDS011;13500;52.514;13.462;2022-08-19T08:53:34;10.47;;;9.43;;
8654;SDS011;13500;52.514;13.462;2022-08-19T08:56:09;9.57;;;8.67;;
8654;SDS011;13500;52.514;13.462;2022-08-19T08:58:46;9.97;;;9.07;;
8654;SDS011;13500;52.514;13.462;2022-08-19T09:01:22;11.23;;;10.20;;
8654;SDS011;13500;52.514;13.462;2022-08-19T09:03:56;10.57;;;9.57;;
8654;SDS011;13500;52.514;13.462;2022-08-19T09:06:29;11.23;;;10.23;;
8654;SDS011;13500;52.514;13.462;2022-08-19T09:09:10;12.43;;;11.33;;
8654;SDS011;13500;52.514;13.462;2022-08-19T09:11:49;11.80;;;10.70;;
8654;SDS011;13500;52.514;13.462;2022-08-19T09:14:31;12.07;;;10.87;;
8654;SDS011;13500;52.514;13.462;2022-08-19T09:17:19;12.33;;;11.03;;
8654;SDS011;13500;52.514;13.462;2022-08-19T09:19:55;12.20;;;11.00;;
8654;SDS011;13500;52.514;13.462;2022-08-19T09:22:27;11.67;;;10.67;;
8654;SDS011;13500;52.514;13.462;2022-08-19T09:24:55;12.40;;;11.30;;
8654;SDS011;13500;52.514;13.462;2022-08-19T09:27:25;11.70;;;10.63;;
8654;SDS011;13500;52.514;13.462;2022-08-19T09:30:10;11.03;;;10.03;;
8654;SDS011;13500;52.514;13.462;2022-08-19T09:32:41;11.33;;;10.23;;
8654;SDS011;13500;52.514;13.462;2022-08-19T09:35:12;11.83;;;10.57;;
8654;SDS011;13500;52.514;13.462;2022-08-19T09:37:42;11.77;;;10.77;;
8654;SDS011;13500;52.514;13.462;2022-08-19T09:40:11;11.30;;;10.10;;
8654;SDS011;13500;52.514;13.462;2022-08-19T09:42:42;11.10;;;10.07;;
8654;SDS011;13500;52.514;13.462;2022-08-19T09:45:16;11.10;;;10.20;;
8654;SDS011;13500;52.514;13.462;2022-08-19T09:47:48;10.43;;;9.53;;
8654;SDS011;13500;52.514;13.462;2022-08-19T09:50:20;11.10;;;10.00;;
8654;SDS011;13500;52.514;13.462;2022-08-19T09:52:50;13.27;;;10.57;;
8654;SDS011;13500;52.514;13.462;2022-08-19T09:55:23;21.60;;;19.57;;
8654;SDS011;13500;52.514;13.462;2022-08-19T09:58:00;15.63;;;14.03;;
8654;SDS011;13500;52.514;13.462;2022-08-19T10:00:29;11.63;;;10.43;;
8654;SDS011;13500;52.514;13.462;2022-08-19T10:02:58;11.27;;;10.17;;
8654;SDS011;13500;52.514;13.462;2022-08-19T10:05:26;11.37;;;10.40;;
8654;SDS011;13500;52.514;13.462;2022-08-19T10:08:14;11.00;;;10.00;;
8654;SDS011;13500;52.514;13.462;2022-08-19T10:10:43;11.00;;;10.00;;
8654;SDS011;13500;52.514;13.462;2022-08-19T10:13:16;10.80;;;9.90;;
8654;SDS011;13500;52.514;13.462;2022-08-19T10:15:48;10.63;;;9.63;;
8654;SDS011;13500;52.514;13.462;2022-08-19T10:18:17;10.47;;;9.57;;
8654;SDS011;13500;52.514;13.462;2022-08-19T10:20:48;10.07;;;9.17;;
8654;SDS011;13500;52.514;13.462;2022-08-19T10:23:18;10.63;;;9.67;;
8654;SDS011;13500;52.514;13.462;2022-08-19T10:25:48;10.13;;;9.13;;
8654;SDS011;13500;52.514;13.462;2022-08-19T10:28:21;10.73;;;9.63;;
8654;SDS011;13500;52.514;13.462;2022-08-19T10:30:49;10.80;;;9.80;;
8654;SDS011;13500;52.514;13.462;2022-08-19T10:33:17;10.37;;;9.40;;
8654;SDS011;13500;52.514;13.462;2022-08-19T10:36:06;10.50;;;9.50;;
8654;SDS011;13500;52.514;13.462;2022-08-19T10:38:37;10.33;;;9.37;;
8654;SDS011;13500;52.514;13.462;2022-08-19T10:41:19;10.47;;;9.47;;
8654;SDS011;13500;52.514;13.462;2022-08-19T10:43:51;10.40;;;9.40;;
8654;SDS011;13500;52.514;13.462;2022-08-19T10:46:21;10.33;;;9.33;;
8654;SDS011;13500;52.514;13.462;2022-08-19T10:48:50;10.03;;;9.03;;
8654;SDS011;13500;52.514;13.462;2022-08-19T10:51:18;10.13;;;9.03;;
8654;SDS011;13500;52.514;13.462;2022-08-19T10:54:14;10.03;;;9.03;;
8654;SDS011;13500;52.514;13.462;2022-08-19T10:56:56;9.80;;;8.90;;
8654;SDS011;13500;52.514;13.462;2022-08-19T10:59:26;10.43;;;9.33;;
8654;SDS011;13500;52.514;13.462;2022-08-19T11:02:02;10.07;;;9.10;;
8654;SDS011;13500;52.514;13.462;2022-08-19T11:04:32;9.90;;;9.00;;
8654;SDS011;13500;52.514;13.462;2022-08-19T11:07:01;10.83;;;9.73;;
8654;SDS011;13500;52.514;13.462;2022-08-19T11:09:31;10.40;;;9.37;;
8654;SDS011;13500;52.514;13.462;2022-08-19T11:12:04;10.30;;;9.30;;
8654;SDS011;13500;52.514;13.462;2022-08-19T11:14:35;9.40;;;8.60;;
8654;SDS011;13500;52.514;13.462;2022-08-19T11:17:03;10.27;;;9.37;;
8654;SDS011;13500;52.514;13.462;2022-08-19T11:19:33;11.07;;;8.93;;
8654;SDS011;13500;52.514;13.462;2022-08-19T11:22:02;9.90;;;9.00;;
8654;SDS011;13500;52.514;13.462;2022-08-19T11:24:30;9.60;;;8.73;;
8654;SDS011;13500;52.514;13.462;2022-08-19T11:27:03;9.77;;;8.87;;
8654;SDS011;13500;52.514;13.462;2022-08-19T11:29:35;10.70;;;8.70;;
8654;SDS011;13500;52.514;13.462;2022-08-19T11:32:06;10.23;;;9.33;;
8654;SDS011;13500;52.514;13.462;2022-08-19T11:34:36;11.37;;;9.50;;
8654;SDS011;13500;52.514;13.462;2022-08-19T11:37:05;9.93;;;9.03;;
8654;SDS011;13500;52.514;13.462;2022-08-19T11:39:36;10.27;;;8.73;;
8654;SDS011;13500;52.514;13.462;2022-08-19T11:42:05;9.53;;;8.73;;
8654;SDS011;13500;52.514;13.462;2022-08-19T11:44:49;10.10;;;9.10;;
8654;SDS011;13500;52.514;13.462;2022-08-19T11:47:18;9.77;;;8.97;;
8654;SDS011;13500;52.514;13.462;2022-08-19T11:49:46;9.30;;;8.53;;
8654;SDS011;13500;52.514;13.462;2022-08-19T11:52:15;9.00;;;8.17;;
8654;SDS011;13500;52.514;13.462;2022-08-19T11:54:43;9.13;;;8.33;;
8654;SDS011;13500;52.514;13.462;2022-08-19T11:57:11;10.23;;;9.23;;
8654;SDS011;13500;52.514;13.462;2022-08-19T11:59:41;13.50;;;12.10;;
8654;SDS011;13500;52.514;13.462;2022-08-19T12:02:10;38.17;;;24.50;;
8654;SDS011;13500;52.514;13.462;2022-08-19T12:04:38;8.83;;;8.00;;
8654;SDS011;13500;52.514;13.462;2022-08-19T12:07:06;9.10;;;8.30;;
8654;SDS011;13500;52.514;13.462;2022-08-19T12:09:34;10.20;;;9.20;;
8654;SDS011;13500;52.514;13.462;2022-08-19T12:12:08;8.20;;;7.43;;
8654;SDS011;13500;52.514;13.462;2022-08-19T12:14:36;8.17;;;7.20;;
8654;SDS011;13500;52.514;13.462;2022-08-19T12:17:04;8.07;;;7.37;;
8654;SDS011;13500;52.514;13.462;2022-08-19T12:19:37;8.10;;;7.40;;
8654;SDS011;13500;52.514;13.462;2022-08-19T12:22:05;7.80;;;7.10;;
8654;SDS011;13500;52.514;13.462;2022-08-19T12:24:34;7.80;;;7.07;;
8654;SDS011;13500;52.514;13.462;2022-08-19T12:27:02;7.73;;;7.03;;
8654;SDS011;13500;52.514;13.462;2022-08-19T12:29:34;7.70;;;7.00;;
8654;SDS011;13500;52.514;13.462;2022-08-19T12:32:03;7.60;;;6.90;;
8654;SDS011;13500;52.514;13.462;2022-08-19T12:34:31;7.63;;;6.83;;
8654;SDS011;13500;52.514;13.462;2022-08-19T12:37:02;7.67;;;6.97;;
8654;SDS011;13500;52.514;13.462;2022-08-19T12:39:34;8.00;;;7.20;;
8654;SDS011;13500;52.514;13.462;2022-08-19T12:42:03;7.63;;;6.93;;
8654;SDS011;13500;52.514;13.462;2022-08-19T12:44:32;7.27;;;6.63;;
8654;SDS011;13500;52.514;13.462;2022-08-19T12:47:01;7.13;;;6.43;;
8654;SDS011;13500;52.514;13.462;2022-08-19T12:49:33;6.93;;;6.23;;
8654;SDS011;13500;52.514;13.462;2022-08-19T12:52:22;7.00;;;6.40;;
8654;SDS011;13500;52.514;13.462;2022-08-19T12:54:52;10.80;;;9.77;;
8654;SDS011;13500;52.514;13.462;2022-08-19T12:57:23;7.77;;;6.97;;
8654;SDS011;13500;52.514;13.462;2022-08-19T12:59:59;9.13;;;7.80;;
8654;SDS011;13500;52.514;13.462;2022-08-19T13:02:31;7.00;;;6.40;;
8654;SDS011;13500;52.514;13.462;2022-08-19T13:05:04;7.63;;;6.93;;
8654;SDS011;13500;52.514;13.462;2022-08-19T13:07:36;8.27;;;7.57;;
8654;SDS011;13500;52.514;13.462;2022-08-19T13:10:05;7.80;;;7.10;;
8654;SDS011;13500;52.514;13.462;2022-08-19T13:12:34;8.53;;;7.63;;
8654;SDS011;13500;52.514;13.462;2022-08-19T13:15:03;7.60;;;7.00;;
8654;SDS011;13500;52.514;13.462;2022-08-19T13:17:37;8.00;;;7.20;;
8654;SDS011;13500;52.514;13.462;2022-08-19T13:20:06;8.87;;;7.33;;
8654;SDS011;13500;52.514;13.462;2022-08-19T13:22:36;8.20;;;7.20;;
8654;SDS011;13500;52.514;13.462;2022-08-19T13:25:06;8.13;;;7.43;;
8654;SDS011;13500;52.514;13.462;2022-08-19T13:27:35;8.30;;;7.40;;
8654;SDS011;13500;52.514;13.462;2022-08-19T13:30:05;7.63;;;6.93;;
8654;SDS011;13500;52.514;13.462;2022-08-19T13:32:53;7.83;;;7.13;;
8654;SDS011;13500;52.514;13.462;2022-08-19T13:35:43;8.87;;;8.07;;
8654;SDS011;13500;52.514;13.462;2022-08-19T13:38:20;7.90;;;7.20;;
8654;SDS011;13500;52.514;13.462;2022-08-19T13:40:49;8.47;;;7.67;;
8654;SDS011;13500;52.514;13.462;2022-08-19T13:43:22;8.40;;;7.60;;
8654;SDS011;13500;52.514;13.462;2022-08-19T13:45:54;8.43;;;7.63;;
8654;SDS011;13500;52.514;13.462;2022-08-19T13:48:23;8.40;;;7.70;;
8654;SDS011;13500;52.514;13.462;2022-08-19T13:50:53;8.00;;;7.30;;
8654;SDS011;13500;52.514;13.462;2022-08-19T13:53:24;8.67;;;7.93;;
8654;SDS011;13500;52.514;13.462;2022-08-19T13:55:52;8.37;;;7.67;;
8654;SDS011;13500;52.514;13.462;2022-08-19T13:58:20;7.73;;;7.07;;
8654;SDS011;13500;52.514;13.462;2022-08-19T14:00:49;7.90;;;7.30;;
8654;SDS011;13500;52.514;13.462;2022-08-19T14:03:17;8.67;;;7.60;;
8654;SDS011;13500;52.514;13.462;2022-08-19T14:05:45;8.50;;;7.60;;
8654;SDS011;13500;52.514;13.462;2022-08-19T14:08:14;7.53;;;6.83;;
8654;SDS011;13500;52.514;13.462;2022-08-19T14:10:44;8.30;;;7.50;;
8654;SDS011;13500;52.514;13.462;2022-08-19T14:13:13;8.33;;;7.53;;
8654;SDS011;13500;52.514;13.462;2022-08-19T14:15:43;8.20;;;7.40;;
8654;SDS011;13500;52.514;13.462;2022-08-19T14:18:13;8.23;;;7.50;;
8654;SDS011;13500;52.514;13.462;2022-08-19T14:20:42;8.23;;;7.53;;
8654;SDS011;13500;52.514;13.462;2022-08-19T14:23:10;9.70;;;7.83;;
8654;SDS011;13500;52.514;13.462;2022-08-19T14:25:40;8.97;;;8.10;;
8654;SDS011;13500;52.514;13.462;2022-08-19T14:28:09;8.10;;;7.40;;
8654;SDS011;13500;52.514;13.462;2022-08-19T14:30:37;8.40;;;7.70;;
8654;SDS011;13500;52.514;13.462;2022-08-19T14:33:06;8.07;;;7.37;;
8654;SDS011;13500;52.514;13.462;2022-08-19T14:35:35;8.70;;;7.90;;
8654;SDS011;13500;52.514;13.462;2022-08-19T14:38:04;8.10;;;7.40;;
8654;SDS011;13500;52.514;13.462;2022-08-19T14:40:33;8.70;;;7.77;;
8654;SDS011;13500;52.514;13.462;2022-08-19T14:43:03;8.77;;;7.97;;
8654;SDS011;13500;52.514;13.462;2022-08-19T14:45:34;8.50;;;7.70;;
8654;SDS011;13500;52.514;13.462;2022-08-19T14:48:07;7.67;;;7.07;;
8654;SDS011;13500;52.514;13.462;2022-08-19T14:50:44;8.67;;;7.83;;
8654;SDS011;13500;52.514;13.462;2022-08-19T14:53:12;7.93;;;7.10;;
8654;SDS011;13500;52.514;13.462;2022-08-19T14:55:40;7.43;;;6.83;;
8654;SDS011;13500;52.514;13.462;2022-08-19T14:58:09;8.20;;;7.40;;
8654;SDS011;13500;52.514;13.462;2022-08-19T15:00:57;7.67;;;6.97;;